Hlavní strana
METAR-TAF:

METAR-TAF

Letiště :

Džíbútí, Džibutsko

zeměpisná šířka: 11-33N, zeměpisná délka: 043-10E, výška: 49 m

Aktuální stav počasí

Zpráva byla vytvořena před 9 hodinami a 19 minutami, v 15:00 UTC
Východní vítr 12 kt
Teplota 28°C
Vlhkost vzduchu 70%
Tlak 1013 hPa
Viditelnost 10 km a více
Skoro jasno ve výšce 2000 ft
Polojasno ve výšce 2600 ft

METAR: HDAM 071500Z 10012KT 9999 FEW020 SCT026 28/22 Q1013

Čas: 03:19 (00:19 UTC)

Předpověď počasí

Zpráva byla vytvořena před 13 hodinami a 19 minutami, v 11:00 UTC
Předpověď platná od 07 v 12 UTC do 08 v 12 UTC
Východní vítr 10 kt
Viditelnost 10 km a více
Polojasno ve výšce 2000 ft
Oblačno až skoro zataženo ve výšce 3000 ft
Změna
od 07 v 15 UTC do 07 v 21 UTC
vítr z různých směrů 3 kt
Polojasno ve výšce 2300 ft
Změna
od 08 v 00 UTC do 08 v 06 UTC
Severní vítr kt
Oblačno až skoro zataženo ve výšce 2000 ft
dešťové přeháňky

TAF: HDAM 071100Z 0712/0812 08010KT 9999 SCT020 BKN030 BECMG 0715/0721 VRB03KT SCT023 BECMG 0800/0806 00000KT SHRA BKN020

Stav a předpovědi počasí z více než 4 000 letišť (zprávy METAR a TAF).

Červené a žluté tečky na mapě představují dostupné meteorologické stanice.

Když kurzor umístíte na tečku, zobrazí se název stanice.

Pak kliknutím zobrazíte stav a předpověď počasí.

Chcete-li změnit mapu, kliknutím na zelené tlačítko se znaménkem +mapu přiblížíte, kliknutím na zelené tlačítko se znaménkem – mapu oddálíte a kliknutím na zelené šipky přejdete na sousední mapy.


METAR-TAF: